Time;durP1;ratioP1;P1;durP2;ratioP2;P2;SDS_P1;SDS_P2;PMS_P1;PMS_P2;Temp;Humidity;BMP_temperature;BMP_pressure;BME280_temperature;BME280_humidity;BME280_pressure;Samples;Min_cycle;Max_cycle;Signal;HPM_P1;HPM_P2
2023/09/01 00:01:38;;;;;;;3.67;2.15;;;;;;;;;;5015876;28;20389;-79
2023/09/01 00:04:04;;;;;;;3.53;2.05;;;;;;;;;;5016049;28;20388;-79
2023/09/01 00:06:30;;;;;;;2.03;1.83;;;;;;;;;;5016179;28;20420;-78
2023/09/01 00:08:56;;;;;;;3.37;2.10;;;;;;;;;;5017144;28;20393;-78
2023/09/01 00:11:22;;;;;;;2.33;1.90;;;;;;;;;;5018402;28;20838;-79
2023/09/01 00:13:48;;;;;;;3.42;1.90;;;;;;;;;;5016306;28;20385;-79
2023/09/01 00:16:14;;;;;;;2.83;2.00;;;;;;;;;;5016319;28;20388;-78
2023/09/01 00:18:40;;;;;;;3.92;2.03;;;;;;;;;;5015913;28;20854;-79
2023/09/01 00:21:06;;;;;;;2.28;2.03;;;;;;;;;;5014761;28;20395;-78
2023/09/01 00:23:33;;;;;;;2.10;1.90;;;;;;;;;;5015645;28;20392;-79
2023/09/01 00:26:00;;;;;;;5.72;5.05;;;;;;;;;;5015435;28;20408;-79
2023/09/01 00:28:26;;;;;;;2.25;2.05;;;;;;;;;;5014463;28;20399;-78
2023/09/01 00:30:53;;;;;;;3.35;2.30;;;;;;;;;;5015525;28;20405;-79
2023/09/01 00:33:19;;;;;;;2.97;2.10;;;;;;;;;;5015623;28;20474;-79
2023/09/01 00:35:45;;;;;;;3.65;2.03;;;;;;;;;;5015397;28;20882;-79
2023/09/01 00:38:11;;;;;;;3.25;2.60;;;;;;;;;;5015447;28;20401;-79
2023/09/01 00:40:37;;;;;;;2.92;2.33;;;;;;;;;;5015419;28;20464;-79
2023/09/01 00:43:03;;;;;;;2.75;2.10;;;;;;;;;;5015214;28;20399;-78
2023/09/01 00:45:29;;;;;;;3.55;2.33;;;;;;;;;;5015675;28;20504;-79
2023/09/01 00:47:55;;;;;;;4.00;2.17;;;;;;;;;;5022841;28;20457;-79
2023/09/01 00:50:21;;;;;;;3.38;2.20;;;;;;;;;;5008880;28;20433;-79
2023/09/01 00:52:47;;;;;;;3.03;2.17;;;;;;;;;;5011420;28;20853;-78
2023/09/01 00:55:13;;;;;;;3.13;2.10;;;;;;;;;;5013227;28;20392;-79
2023/09/01 00:57:39;;;;;;;3.17;2.50;;;;;;;;;;5012181;28;20459;-79
2023/09/01 01:00:05;;;;;;;2.60;2.00;;;;;;;;;;5003151;28;20402;-79
2023/09/01 01:02:32;;;;;;;4.00;2.50;;;;;;;;;;5014977;28;20468;-79
2023/09/01 01:04:58;;;;;;;3.13;2.30;;;;;;;;;;5014533;28;20835;-79
2023/09/01 01:07:30;;;;;;;3.40;2.72;;;;;;;;;;5015441;28;20787;-79
2023/09/01 01:10:03;;;;;;;2.45;2.25;;;;;;;;;;5015284;28;20472;-79
2023/09/01 01:12:34;;;;;;;3.75;2.28;;;;;;;;;;5001845;28;20436;-79
2023/09/01 01:15:08;;;;;;;4.32;2.70;;;;;;;;;;5015078;28;20495;-79
2023/09/01 01:17:35;;;;;;;4.07;2.60;;;;;;;;;;5014971;28;20921;-79
2023/09/01 01:20:13;;;;;;;3.63;2.22;;;;;;;;;;5014672;28;20385;-78
2023/09/01 01:22:42;;;;;;;3.10;2.20;;;;;;;;;;5001118;28;20387;-79
2023/09/01 01:25:09;;;;;;;3.90;2.30;;;;;;;;;;5014334;28;20384;-78
2023/09/01 01:27:35;;;;;;;2.83;2.45;;;;;;;;;;5014510;28;20388;-79
2023/09/01 01:30:01;;;;;;;2.83;2.33;;;;;;;;;;5014302;28;20400;-78
2023/09/01 01:32:28;;;;;;;3.60;2.30;;;;;;;;;;5014451;28;20431;-78
2023/09/01 01:34:58;;;;;;;3.22;2.33;;;;;;;;;;5014699;28;20395;-79
2023/09/01 01:37:33;;;;;;;4.25;2.40;;;;;;;;;;5013976;28;20747;-79
2023/09/01 01:40:00;;;;;;;3.45;2.40;;;;;;;;;;5013310;28;20782;-79
2023/09/01 01:42:27;;;;;;;2.60;2.40;;;;;;;;;;5013993;28;20385;-79
2023/09/01 01:44:54;;;;;;;3.28;2.63;;;;;;;;;;5013679;28;20416;-78
2023/09/01 01:47:21;;;;;;;3.03;2.28;;;;;;;;;;5014169;28;20417;-79
2023/09/01 01:49:47;;;;;;;3.08;2.30;;;;;;;;;;5014112;28;20430;-78
2023/09/01 01:52:13;;;;;;;2.72;2.28;;;;;;;;;;5014090;28;20396;-79
2023/09/01 01:54:39;;;;;;;3.10;2.15;;;;;;;;;;5014305;28;20877;-79
2023/09/01 01:57:05;;;;;;;2.93;2.00;;;;;;;;;;5014532;28;20399;-79
2023/09/01 01:59:31;;;;;;;2.80;2.30;;;;;;;;;;5011794;28;20403;-79
2023/09/01 02:01:58;;;;;;;3.17;2.08;;;;;;;;;;5013682;28;20389;-79
2023/09/01 02:04:24;;;;;;;2.80;2.20;;;;;;;;;;5000433;28;20722;-79
2023/09/01 02:06:50;;;;;;;4.20;2.50;;;;;;;;;;5000385;28;20833;-79
2023/09/01 02:09:16;;;;;;;3.22;2.28;;;;;;;;;;5012389;28;20429;-79
2023/09/01 02:11:42;;;;;;;2.33;2.13;;;;;;;;;;5006560;28;20404;-78
2023/09/01 02:14:08;;;;;;;3.10;2.23;;;;;;;;;;5013395;28;20381;-79
2023/09/01 02:16:34;;;;;;;3.47;2.47;;;;;;;;;;5012031;28;21016;-79
2023/09/01 02:19:00;;;;;;;3.20;2.55;;;;;;;;;;5019827;28;20388;-79
2023/09/01 02:21:26;;;;;;;3.50;2.30;;;;;;;;;;5013851;28;20389;-79
2023/09/01 02:23:52;;;;;;;3.47;2.40;;;;;;;;;;5012802;28;20860;-79
2023/09/01 02:26:22;;;;;;;2.97;2.05;;;;;;;;;;5013726;28;20488;-79
2023/09/01 02:28:48;;;;;;;4.10;2.35;;;;;;;;;;5013446;28;20415;-78
2023/09/01 02:31:16;;;;;;;3.63;2.10;;;;;;;;;;5011754;28;20447;-78
2023/09/01 02:33:42;;;;;;;2.55;2.35;;;;;;;;;;5013588;28;20404;-79
2023/09/01 02:36:25;;;;;;;3.97;2.13;;;;;;;;;;5013736;28;20482;-78
2023/09/01 02:38:51;;;;;;;3.37;2.20;;;;;;;;;;5013601;28;20377;-79
2023/09/01 02:41:17;;;;;;;4.55;2.15;;;;;;;;;;5015213;28;20455;-78
2023/09/01 02:43:45;;;;;;;3.33;2.50;;;;;;;;;;5013030;28;20384;-78
2023/09/01 02:46:11;;;;;;;3.65;2.47;;;;;;;;;;5013309;28;20495;-78
2023/09/01 02:48:37;;;;;;;3.92;2.08;;;;;;;;;;5015267;28;20783;-79
2023/09/01 02:51:04;;;;;;;2.75;2.40;;;;;;;;;;5013165;28;20444;-79
2023/09/01 02:53:31;;;;;;;4.07;2.38;;;;;;;;;;5013083;28;20859;-79
2023/09/01 02:55:57;;;;;;;2.70;2.50;;;;;;;;;;5013452;28;20411;-78
2023/09/01 02:58:23;;;;;;;2.60;2.35;;;;;;;;;;5013062;28;20850;-78
2023/09/01 03:00:49;;;;;;;2.97;2.50;;;;;;;;;;5013331;28;20515;-78
2023/09/01 03:03:15;;;;;;;3.40;2.20;;;;;;;;;;5013500;28;20404;-79
2023/09/01 03:05:41;;;;;;;2.40;2.20;;;;;;;;;;5012873;28;20424;-79
2023/09/01 03:08:07;;;;;;;2.67;2.47;;;;;;;;;;5013155;28;20393;-79
2023/09/01 03:10:33;;;;;;;4.32;2.80;;;;;;;;;;5012903;28;20425;-79
2023/09/01 03:12:59;;;;;;;5.65;4.07;;;;;;;;;;5012351;28;20839;-79
2023/09/01 03:15:26;;;;;;;4.05;2.35;;;;;;;;;;5013211;28;20392;-80
2023/09/01 03:17:52;;;;;;;3.20;2.67;;;;;;;;;;5014307;28;20400;-80
2023/09/01 03:20:18;;;;;;;3.42;3.10;;;;;;;;;;5013335;28;20425;-80
2023/09/01 03:22:44;;;;;;;3.20;2.43;;;;;;;;;;5011999;28;20459;-80
2023/09/01 03:25:10;;;;;;;2.55;2.05;;;;;;;;;;5013419;28;20800;-80
2023/09/01 03:27:37;;;;;;;3.03;2.30;;;;;;;;;;5009639;28;20432;-80
2023/09/01 03:30:03;;;;;;;2.75;2.30;;;;;;;;;;5013126;28;20720;-79
2023/09/01 03:32:33;;;;;;;2.22;2.03;;;;;;;;;;5012896;28;20479;-80
2023/09/01 03:34:59;;;;;;;2.75;2.10;;;;;;;;;;5012870;28;20786;-80
2023/09/01 03:37:25;;;;;;;2.85;2.55;;;;;;;;;;5012993;28;20389;-80
2023/09/01 03:39:51;;;;;;;3.20;2.40;;;;;;;;;;5012930;28;20447;-80
2023/09/01 03:42:17;;;;;;;2.70;2.33;;;;;;;;;;5012852;28;20388;-79
2023/09/01 03:44:44;;;;;;;3.15;2.63;;;;;;;;;;5012695;28;20389;-80
2023/09/01 03:47:10;;;;;;;2.58;2.38;;;;;;;;;;5012875;28;20986;-79
2023/09/01 03:49:36;;;;;;;5.07;2.75;;;;;;;;;;5012429;28;20388;-80
2023/09/01 03:52:02;;;;;;;3.25;2.70;;;;;;;;;;5012716;28;20389;-79
2023/09/01 03:54:28;;;;;;;4.30;2.35;;;;;;;;;;5013027;28;20400;-79
2023/09/01 03:56:54;;;;;;;5.78;2.90;;;;;;;;;;5013069;28;20381;-80
2023/09/01 03:59:20;;;;;;;3.90;2.47;;;;;;;;;;5013383;28;20424;-79
2023/09/01 04:01:47;;;;;;;4.13;2.60;;;;;;;;;;5012743;28;20396;-79
2023/09/01 04:04:13;;;;;;;2.80;2.60;;;;;;;;;;5015360;28;20734;-80
2023/09/01 04:06:39;;;;;;;4.35;2.63;;;;;;;;;;5007693;28;20437;-80
2023/09/01 04:09:05;;;;;;;3.60;2.70;;;;;;;;;;5016007;28;20479;-80
2023/09/01 04:11:32;;;;;;;3.67;2.60;;;;;;;;;;5015984;28;20404;-80
2023/09/01 04:13:58;;;;;;;4.33;3.07;;;;;;;;;;5015298;28;20850;-81
2023/09/01 04:16:24;;;;;;;4.90;3.67;;;;;;;;;;5015885;28;20388;-79
2023/09/01 04:18:51;;;;;;;5.00;3.28;;;;;;;;;;5016366;28;20381;-79
2023/09/01 04:21:17;;;;;;;4.77;3.00;;;;;;;;;;5017544;28;20910;-79
2023/09/01 04:23:43;;;;;;;2.92;2.60;;;;;;;;;;5018160;28;20393;-79
2023/09/01 04:26:09;;;;;;;6.88;3.00;;;;;;;;;;5015836;28;20409;-79
2023/09/01 04:28:35;;;;;;;2.67;2.45;;;;;;;;;;5015831;28;20396;-80
2023/09/01 04:31:02;;;;;;;2.42;2.22;;;;;;;;;;5015564;28;20877;-80
2023/09/01 04:33:28;;;;;;;2.70;2.30;;;;;;;;;;5016052;28;20416;-80
2023/09/01 04:36:03;;;;;;;2.70;2.40;;;;;;;;;;5015584;28;20405;-80
2023/09/01 04:38:29;;;;;;;2.88;2.28;;;;;;;;;;5022604;28;20537;-81
2023/09/01 04:40:59;;;;;;;2.40;2.20;;;;;;;;;;5021584;28;20943;-80
2023/09/01 04:43:26;;;;;;;4.38;2.33;;;;;;;;;;5010962;28;20827;-80
2023/09/01 04:45:53;;;;;;;2.90;2.20;;;;;;;;;;5016319;28;20735;-81
2023/09/01 04:48:19;;;;;;;2.40;2.20;;;;;;;;;;5013759;28;20401;-80
2023/09/01 04:50:45;;;;;;;3.22;2.50;;;;;;;;;;5016005;28;21078;-80
2023/09/01 04:53:12;;;;;;;3.20;2.35;;;;;;;;;;5028219;28;20395;-80
2023/09/01 04:55:38;;;;;;;2.93;2.50;;;;;;;;;;5016531;28;20846;-81
2023/09/01 04:58:04;;;;;;;2.90;2.40;;;;;;;;;;5016008;28;20464;-80
2023/09/01 05:00:30;;;;;;;3.70;2.47;;;;;;;;;;5015691;28;20431;-80
2023/09/01 05:02:56;;;;;;;3.42;2.40;;;;;;;;;;5015802;28;20508;-80
2023/09/01 05:05:22;;;;;;;2.50;2.30;;;;;;;;;;5016215;28;20878;-81
2023/09/01 05:07:48;;;;;;;2.55;2.35;;;;;;;;;;5007131;28;20389;-80
2023/09/01 05:10:14;;;;;;;2.65;2.30;;;;;;;;;;5016958;28;20400;-81
2023/09/01 05:12:40;;;;;;;2.80;2.40;;;;;;;;;;5015537;28;20404;-81
2023/09/01 05:15:06;;;;;;;5.82;2.47;;;;;;;;;;5015143;28;20392;-81
2023/09/01 05:17:32;;;;;;;3.20;2.90;;;;;;;;;;5016508;28;20442;-81
2023/09/01 05:19:58;;;;;;;2.60;2.40;;;;;;;;;;5016251;28;20393;-81
2023/09/01 05:22:25;;;;;;;2.75;2.38;;;;;;;;;;5015297;28;20408;-81
2023/09/01 05:24:51;;;;;;;4.82;2.53;;;;;;;;;;5015679;28;20730;-81
2023/09/01 05:27:20;;;;;;;2.78;2.58;;;;;;;;;;5015527;28;20417;-81
2023/09/01 05:29:47;;;;;;;2.97;2.40;;;;;;;;;;5015260;28;20391;-80
2023/09/01 05:32:13;;;;;;;2.30;2.10;;;;;;;;;;5015510;28;20385;-81
2023/09/01 05:34:40;;;;;;;2.38;2.17;;;;;;;;;;5015114;28;20393;-81
2023/09/01 05:37:07;;;;;;;2.67;2.30;;;;;;;;;;5015376;28;20404;-81
2023/09/01 05:39:33;;;;;;;3.03;2.13;;;;;;;;;;5015273;28;20381;-81
2023/09/01 05:41:59;;;;;;;4.03;2.10;;;;;;;;;;5015361;28;20481;-81
2023/09/01 05:44:25;;;;;;;2.45;1.75;;;;;;;;;;5014699;28;20384;-81
2023/09/01 05:46:51;;;;;;;2.03;1.73;;;;;;;;;;5014254;28;20495;-80
2023/09/01 05:49:18;;;;;;;5.07;2.95;;;;;;;;;;5013466;28;20388;-81
2023/09/01 05:51:44;;;;;;;5.47;3.17;;;;;;;;;;5014329;28;20484;-81
2023/09/01 05:54:10;;;;;;;5.40;3.60;;;;;;;;;;5014990;28;20392;-81
2023/09/01 05:56:35;;;;;;;4.38;3.53;;;;;;;;;;5015620;28;20850;-81
2023/09/01 05:59:02;;;;;;;6.30;4.28;;;;;;;;;;5015144;28;20420;-80
2023/09/01 06:01:32;;;;;;;6.67;4.53;;;;;;;;;;5014681;28;20384;-81
2023/09/01 06:03:59;;;;;;;6.25;4.57;;;;;;;;;;5014768;28;20842;-81
2023/09/01 06:06:25;;;;;;;4.43;3.50;;;;;;;;;;5014455;28;20432;-80
2023/09/01 06:08:51;;;;;;;5.33;3.17;;;;;;;;;;5014967;28;20412;-81
2023/09/01 06:11:17;;;;;;;3.50;3.20;;;;;;;;;;5014705;28;20399;-81
2023/09/01 06:13:43;;;;;;;3.53;2.97;;;;;;;;;;5014845;28;20389;-81
2023/09/01 06:16:11;;;;;;;5.25;3.00;;;;;;;;;;5014671;28;20396;-80
2023/09/01 06:18:37;;;;;;;4.45;2.58;;;;;;;;;;5014329;28;20770;-81
2023/09/01 06:21:03;;;;;;;3.20;2.25;;;;;;;;;;5014580;28;20399;-81
2023/09/01 06:23:29;;;;;;;3.50;2.05;;;;;;;;;;5014919;28;20419;-81
2023/09/01 06:25:55;;;;;;;2.72;2.42;;;;;;;;;;5016463;28;20444;-81
2023/09/01 06:28:21;;;;;;;4.70;2.50;;;;;;;;;;5022083;28;20510;-81
2023/09/01 06:30:47;;;;;;;2.50;2.30;;;;;;;;;;5020638;28;20523;-80
2023/09/01 06:33:13;;;;;;;2.70;2.50;;;;;;;;;;5014792;28;20735;-81
2023/09/01 06:35:39;;;;;;;3.90;2.75;;;;;;;;;;5014826;28;20465;-80
2023/09/01 06:38:05;;;;;;;3.75;2.65;;;;;;;;;;5013912;28;20395;-81
2023/09/01 06:40:31;;;;;;;3.17;2.88;;;;;;;;;;5019517;28;20393;-80
2023/09/01 06:42:57;;;;;;;2.70;2.50;;;;;;;;;;5014245;28;20397;-81
2023/09/01 06:45:23;;;;;;;2.45;2.17;;;;;;;;;;5013872;28;20425;-81
2023/09/01 06:47:55;;;;;;;2.60;2.10;;;;;;;;;;5013738;28;20807;-81
2023/09/01 06:50:21;;;;;;;3.75;2.22;;;;;;;;;;5013811;28;20397;-82
2023/09/01 06:52:47;;;;;;;3.70;2.30;;;;;;;;;;5013421;28;20399;-81
2023/09/01 06:55:13;;;;;;;2.70;2.00;;;;;;;;;;5013251;28;20389;-81
2023/09/01 06:57:39;;;;;;;3.28;2.20;;;;;;;;;;5007022;28;20401;-81
2023/09/01 07:00:06;;;;;;;2.35;2.15;;;;;;;;;;5005245;28;20716;-81
2023/09/01 07:02:32;;;;;;;2.28;2.08;;;;;;;;;;5016772;28;20383;-80
2023/09/01 07:04:58;;;;;;;2.28;1.92;;;;;;;;;;5013309;28;20381;-80
2023/09/01 07:07:24;;;;;;;2.90;1.80;;;;;;;;;;5005269;28;20500;-81
2023/09/01 07:09:51;;;;;;;2.55;2.03;;;;;;;;;;5013558;28;20464;-81
2023/09/01 07:12:17;;;;;;;2.67;1.90;;;;;;;;;;5013803;28;20420;-80
2023/09/01 07:14:43;;;;;;;2.57;1.83;;;;;;;;;;5013570;28;20415;-80
2023/09/01 07:17:11;;;;;;;2.70;1.83;;;;;;;;;;5013954;28;20389;-80
2023/09/01 07:19:37;;;;;;;2.40;1.80;;;;;;;;;;5013856;28;20400;-80
2023/09/01 07:22:04;;;;;;;1.75;1.60;;;;;;;;;;5013889;28;20431;-80
2023/09/01 07:24:30;;;;;;;2.00;1.70;;;;;;;;;;5013491;28;20854;-80
2023/09/01 07:26:56;;;;;;;2.08;1.80;;;;;;;;;;5013817;28;20428;-81
2023/09/01 07:29:22;;;;;;;3.00;1.90;;;;;;;;;;5013401;28;20432;-80
2023/09/01 07:31:48;;;;;;;2.95;2.40;;;;;;;;;;5013016;28;20381;-80
2023/09/01 07:34:14;;;;;;;3.90;2.08;;;;;;;;;;5013564;28;20381;-81
2023/09/01 07:36:40;;;;;;;3.08;2.75;;;;;;;;;;5013515;28;20393;-81
2023/09/01 07:39:06;;;;;;;2.97;2.20;;;;;;;;;;5015919;28;20824;-80
2023/09/01 07:41:32;;;;;;;2.28;1.77;;;;;;;;;;5015593;28;20396;-80
2023/09/01 07:43:58;;;;;;;3.30;2.28;;;;;;;;;;5017015;28;20404;-80
2023/09/01 07:46:24;;;;;;;2.53;2.15;;;;;;;;;;5015815;28;20424;-81
2023/09/01 07:48:50;;;;;;;2.38;2.17;;;;;;;;;;5016083;28;20400;-81
2023/09/01 07:51:16;;;;;;;2.03;1.83;;;;;;;;;;5016202;28;20392;-80
2023/09/01 07:53:42;;;;;;;2.40;1.85;;;;;;;;;;5016528;28;20746;-81
2023/09/01 07:56:12;;;;;;;3.00;2.60;;;;;;;;;;5016010;28;20870;-81
2023/09/01 07:58:38;;;;;;;3.13;2.00;;;;;;;;;;5015962;28;20388;-80
2023/09/01 08:01:04;;;;;;;2.60;2.28;;;;;;;;;;5016001;28;20443;-80
2023/09/01 08:03:30;;;;;;;2.63;2.00;;;;;;;;;;5014205;28;20391;-80
2023/09/01 08:05:58;;;;;;;2.88;2.10;;;;;;;;;;5011294;28;20860;-80
2023/09/01 08:08:24;;;;;;;4.63;2.20;;;;;;;;;;5010934;28;20400;-81
2023/09/01 08:10:51;;;;;;;2.05;1.85;;;;;;;;;;5015461;28;20381;-81
2023/09/01 08:13:17;;;;;;;2.70;1.80;;;;;;;;;;5013233;28;20423;-81
2023/09/01 08:15:43;;;;;;;2.13;1.92;;;;;;;;;;5028227;28;20781;-80
2023/09/01 08:18:09;;;;;;;2.40;2.00;;;;;;;;;;5015580;28;20389;-81
2023/09/01 08:20:35;;;;;;;2.25;2.00;;;;;;;;;;5015495;28;20484;-81
2023/09/01 08:23:01;;;;;;;3.43;2.10;;;;;;;;;;5015649;28;20444;-81
2023/09/01 08:25:27;;;;;;;2.95;1.77;;;;;;;;;;5017228;28;20443;-81
2023/09/01 08:27:53;;;;;;;2.83;1.70;;;;;;;;;;5015813;28;20428;-81
2023/09/01 08:30:20;;;;;;;2.13;1.85;;;;;;;;;;5015559;28;20401;-81
2023/09/01 08:32:46;;;;;;;1.93;1.67;;;;;;;;;;5015694;28;20436;-81
2023/09/01 08:35:12;;;;;;;2.72;1.90;;;;;;;;;;5015551;28;20902;-81
2023/09/01 08:37:39;;;;;;;2.08;1.67;;;;;;;;;;5015862;28;20479;-81
2023/09/01 08:40:05;;;;;;;2.38;1.83;;;;;;;;;;5015200;28;20396;-81
2023/09/01 08:42:31;;;;;;;2.28;2.05;;;;;;;;;;5015072;28;20469;-81
2023/09/01 08:44:59;;;;;;;2.45;1.75;;;;;;;;;;5014681;28;20404;-81
2023/09/01 08:47:26;;;;;;;2.63;1.73;;;;;;;;;;5015229;28;20428;-81
2023/09/01 08:49:53;;;;;;;1.92;1.48;;;;;;;;;;5019760;28;20520;-80
2023/09/01 08:52:19;;;;;;;1.97;1.77;;;;;;;;;;5014420;28;20393;-79
2023/09/01 08:54:46;;;;;;;2.65;1.70;;;;;;;;;;5014423;28;20392;-79
2023/09/01 08:57:12;;;;;;;2.13;1.73;;;;;;;;;;5014995;28;20416;-79
2023/09/01 08:59:38;;;;;;;2.40;1.70;;;;;;;;;;5015359;28;20420;-80
2023/09/01 09:02:05;;;;;;;2.87;1.60;;;;;;;;;;5014897;28;20423;-81
2023/09/01 09:04:32;;;;;;;2.33;1.55;;;;;;;;;;5015943;28;20483;-82
2023/09/01 09:07:15;;;;;;;2.85;2.00;;;;;;;;;;5015860;28;20421;-81
2023/09/01 09:09:53;;;;;;;2.90;1.75;;;;;;;;;;5015454;28;20392;-80
2023/09/01 09:12:21;;;;;;;2.65;1.80;;;;;;;;;;5015287;28;20385;-81
2023/09/01 09:14:52;;;;;;;2.95;1.80;;;;;;;;;;5014511;28;20820;-81
2023/09/01 09:17:20;;;;;;;2.75;1.63;;;;;;;;;;5015349;28;20449;-81
2023/09/01 09:20:06;;;;;;;2.70;1.60;;;;;;;;;;5014382;28;20890;-82
2023/09/01 09:22:32;;;;;;;2.03;1.83;;;;;;;;;;5014484;28;20902;-80
2023/09/01 09:24:58;;;;;;;4.05;1.70;;;;;;;;;;5014748;28;20472;-81
2023/09/01 09:27:26;;;;;;;2.70;1.57;;;;;;;;;;5014870;28;20496;-81
2023/09/01 09:29:52;;;;;;;2.28;1.27;;;;;;;;;;5014108;28;20400;-80
2023/09/01 09:32:17;;;;;;;2.03;1.40;;;;;;;;;;5013896;28;20403;-80
2023/09/01 09:35:03;;;;;;;1.60;1.40;;;;;;;;;;5015302;28;20434;-81
2023/09/01 09:37:29;;;;;;;1.73;1.30;;;;;;;;;;5015307;28;20422;-80
2023/09/01 09:40:09;;;;;;;2.20;1.20;;;;;;;;;;5014216;28;20925;-81
2023/09/01 09:42:39;;;;;;;2.42;1.27;;;;;;;;;;5013971;28;20396;-80
2023/09/01 09:45:06;;;;;;;3.47;1.40;;;;;;;;;;5014369;28;20410;-81
2023/09/01 09:47:33;;;;;;;1.98;1.52;;;;;;;;;;5014889;28;20488;-80
2023/09/01 09:50:00;;;;;;;2.05;1.38;;;;;;;;;;5011172;28;20777;-80
2023/09/01 09:52:29;;;;;;;2.20;1.35;;;;;;;;;;5006895;28;20395;-80
2023/09/01 09:54:59;;;;;;;2.03;1.50;;;;;;;;;;5014924;28;20385;-81
2023/09/01 09:57:26;;;;;;;2.90;1.60;;;;;;;;;;5012299;28;20460;-81
2023/09/01 09:59:58;;;;;;;2.15;1.50;;;;;;;;;;5025600;28;20399;-81
2023/09/01 10:02:34;;;;;;;3.33;1.52;;;;;;;;;;5012662;28;20997;-81
2023/09/01 10:05:01;;;;;;;2.00;1.60;;;;;;;;;;5014508;28;20385;-80
2023/09/01 10:07:28;;;;;;;3.15;1.40;;;;;;;;;;5014047;28;20452;-81
2023/09/01 10:09:54;;;;;;;2.30;1.27;;;;;;;;;;5013957;28;20396;-81
2023/09/01 10:12:20;;;;;;;1.92;1.35;;;;;;;;;;5014686;28;20731;-81
2023/09/01 10:14:48;;;;;;;2.88;1.30;;;;;;;;;;5014731;28;20389;-81
2023/09/01 10:17:15;;;;;;;2.13;1.30;;;;;;;;;;5010396;28;20405;-81
2023/09/01 10:19:42;;;;;;;1.77;1.40;;;;;;;;;;5014596;28;20396;-83
2023/09/01 10:22:08;;;;;;;1.80;1.27;;;;;;;;;;5014596;28;20381;-82
2023/09/01 10:24:34;;;;;;;1.92;1.33;;;;;;;;;;5018184;28;20384;-82
2023/09/01 10:27:07;;;;;;;1.95;1.30;;;;;;;;;;5014159;28;20413;-82
2023/09/01 10:29:34;;;;;;;3.40;1.40;;;;;;;;;;5012245;28;20797;-81
2023/09/01 10:32:17;;;;;;;2.10;1.20;;;;;;;;;;5016500;28;20437;-82
2023/09/01 10:34:51;;;;;;;2.47;1.33;;;;;;;;;;5003585;28;20386;-82
2023/09/01 10:37:35;;;;;;;2.00;1.20;;;;;;;;;;5010130;28;20392;-82
2023/09/01 10:40:04;;;;;;;2.20;1.20;;;;;;;;;;5013728;28;20878;-82
2023/09/01 10:42:39;;;;;;;1.88;1.20;;;;;;;;;;5013938;28;20467;-82
2023/09/01 10:45:06;;;;;;;1.73;1.10;;;;;;;;;;5018563;28;20743;-82
2023/09/01 10:47:32;;;;;;;1.70;1.30;;;;;;;;;;5013574;28;20902;-82
2023/09/01 10:49:58;;;;;;;4.60;1.27;;;;;;;;;;5008842;28;20393;-82
2023/09/01 10:52:26;;;;;;;1.50;1.17;;;;;;;;;;5024287;28;20393;-82
2023/09/01 10:55:13;;;;;;;2.23;1.10;;;;;;;;;;5013351;28;20929;-81
2023/09/01 10:57:41;;;;;;;1.75;0.90;;;;;;;;;;5004570;28;20392;-81
2023/09/01 11:00:29;;;;;;;1.15;1.05;;;;;;;;;;5026030;28;20454;-83
2023/09/01 11:03:15;;;;;;;1.67;1.10;;;;;;;;;;5010401;28;20883;-84
2023/09/01 11:05:41;;;;;;;1.75;1.20;;;;;;;;;;5013575;28;20408;-83
2023/09/01 11:08:15;;;;;;;1.77;1.13;;;;;;;;;;5006841;28;20389;-84
2023/09/01 11:10:41;;;;;;;1.63;1.08;;;;;;;;;;5013773;28;20782;-84
2023/09/01 11:13:17;;;;;;;1.65;1.00;;;;;;;;;;5013125;28;20870;-84
2023/09/01 11:15:47;;;;;;;2.15;1.05;;;;;;;;;;5020432;28;20894;-84
2023/09/01 11:18:20;;;;;;;2.15;1.10;;;;;;;;;;5017327;28;20375;-81
2023/09/01 11:20:47;;;;;;;1.38;1.05;;;;;;;;;;5017999;28;20389;-84
2023/09/01 11:23:14;;;;;;;4.18;1.00;;;;;;;;;;5012812;28;20413;-83
2023/09/01 11:25:41;;;;;;;1.38;1.15;;;;;;;;;;5013420;28;20508;-83
2023/09/01 11:28:13;;;;;;;2.55;1.30;;;;;;;;;;5013778;28;20421;-82
2023/09/01 11:30:50;;;;;;;2.00;1.40;;;;;;;;;;5013926;28;20387;-82
2023/09/01 11:33:16;;;;;;;1.30;0.90;;;;;;;;;;5013754;28;20395;-83
2023/09/01 11:35:42;;;;;;;2.67;1.73;;;;;;;;;;5012568;28;20397;-82
2023/09/01 11:38:16;;;;;;;2.05;1.40;;;;;;;;;;5008411;28;20435;-82
2023/09/01 11:40:42;;;;;;;1.63;1.53;;;;;;;;;;5014444;28;20412;-82
2023/09/01 11:43:09;;;;;;;1.23;0.93;;;;;;;;;;5013625;28;20758;-82
2023/09/01 11:45:35;;;;;;;0.83;0.80;;;;;;;;;;5012695;28;20471;-82
2023/09/01 11:48:02;;;;;;;1.30;0.90;;;;;;;;;;5022342;28;20914;-83
2023/09/01 11:50:28;;;;;;;1.53;0.90;;;;;;;;;;5010258;28;20412;-82
2023/09/01 11:52:56;;;;;;;1.23;0.80;;;;;;;;;;5004758;28;20406;-81
2023/09/01 11:55:32;;;;;;;1.73;0.82;;;;;;;;;;5009164;28;20720;-82
2023/09/01 11:57:58;;;;;;;1.27;0.80;;;;;;;;;;5007275;28;20412;-84
2023/09/01 12:00:32;;;;;;;2.63;1.10;;;;;;;;;;5015637;28;20391;-84
2023/09/01 12:02:58;;;;;;;1.52;0.98;;;;;;;;;;5016804;28;20384;-84
2023/09/01 12:05:35;;;;;;;1.27;0.80;;;;;;;;;;5017239;28;20396;-84
2023/09/01 12:08:02;;;;;;;2.05;1.05;;;;;;;;;;5010365;28;20393;-85
2023/09/01 12:10:29;;;;;;;1.95;0.90;;;;;;;;;;5014769;28;20384;-85
2023/09/01 12:13:08;;;;;;;1.20;0.90;;;;;;;;;;5017918;28;20476;-85
2023/09/01 12:15:51;;;;;;;1.08;0.75;;;;;;;;;;5016969;28;20397;-85
2023/09/01 12:18:27;;;;;;;2.40;1.10;;;;;;;;;;5017262;28;20381;-85
2023/09/01 12:20:53;;;;;;;1.85;0.88;;;;;;;;;;5015569;28;20397;-86
2023/09/01 12:23:25;;;;;;;1.00;0.90;;;;;;;;;;5017196;28;20400;-86
2023/09/01 12:25:51;;;;;;;1.17;0.80;;;;;;;;;;5020539;28;20463;-86
2023/09/01 12:28:17;;;;;;;2.40;0.88;;;;;;;;;;5025019;28;20707;-85
2023/09/01 12:30:43;;;;;;;0.97;0.80;;;;;;;;;;5019301;28;20473;-85
2023/09/01 12:33:09;;;;;;;2.00;0.80;;;;;;;;;;5018658;28;20833;-85
2023/09/01 12:35:35;;;;;;;1.27;0.80;;;;;;;;;;5019578;28;20431;-84
2023/09/01 12:38:01;;;;;;;1.20;0.83;;;;;;;;;;5020699;28;20976;-84
2023/09/01 12:40:27;;;;;;;1.70;0.87;;;;;;;;;;5020781;28;20428;-85
2023/09/01 12:42:53;;;;;;;1.33;0.90;;;;;;;;;;5024261;28;20411;-84
2023/09/01 12:45:19;;;;;;;1.67;0.93;;;;;;;;;;5019405;28;20940;-86
2023/09/01 12:47:45;;;;;;;2.80;1.27;;;;;;;;;;5018293;28;20453;-86
2023/09/01 12:50:11;;;;;;;1.45;1.02;;;;;;;;;;5019195;28;20712;-86
2023/09/01 12:52:37;;;;;;;1.30;0.93;;;;;;;;;;5018398;28;20399;-86
2023/09/01 12:55:03;;;;;;;2.15;1.10;;;;;;;;;;5020253;28;20416;-84
2023/09/01 12:57:29;;;;;;;1.90;0.80;;;;;;;;;;5019694;28;20407;-84
2023/09/01 12:59:55;;;;;;;2.70;0.98;;;;;;;;;;5019796;28;20839;-85
2023/09/01 13:02:23;;;;;;;1.50;0.80;;;;;;;;;;5011950;28;20405;-85
2023/09/01 13:04:49;;;;;;;1.52;0.90;;;;;;;;;;5013643;28;20392;-84
2023/09/01 13:07:16;;;;;;;3.05;1.20;;;;;;;;;;5013249;28;20428;-85
2023/09/01 13:09:42;;;;;;;1.98;0.95;;;;;;;;;;5013234;28;20389;-85
2023/09/01 13:12:08;;;;;;;2.08;1.00;;;;;;;;;;5013107;28;20392;-85
2023/09/01 13:14:34;;;;;;;1.30;1.00;;;;;;;;;;5013461;28;20385;-85
2023/09/01 13:17:00;;;;;;;1.10;1.00;;;;;;;;;;5013320;28;20395;-84
2023/09/01 13:19:26;;;;;;;1.20;0.90;;;;;;;;;;5013179;28;20474;-86
2023/09/01 13:21:52;;;;;;;1.40;0.90;;;;;;;;;;5013403;28;20915;-83
2023/09/01 13:24:18;;;;;;;2.00;0.90;;;;;;;;;;5013533;28;20395;-85
2023/09/01 13:26:44;;;;;;;1.35;1.10;;;;;;;;;;5013315;28;20786;-85
2023/09/01 13:29:10;;;;;;;2.28;0.80;;;;;;;;;;5013876;28;20888;-84
2023/09/01 13:31:36;;;;;;;1.90;0.90;;;;;;;;;;5012147;28;20393;-85
2023/09/01 13:34:02;;;;;;;1.70;1.13;;;;;;;;;;5014208;28;20762;-85
2023/09/01 13:36:28;;;;;;;1.90;1.00;;;;;;;;;;5012670;28;20917;-85
2023/09/01 13:38:54;;;;;;;1.40;1.10;;;;;;;;;;5013974;28;20791;-85
2023/09/01 13:41:20;;;;;;;1.38;0.90;;;;;;;;;;5013529;28;20420;-85
2023/09/01 13:43:46;;;;;;;1.08;0.98;;;;;;;;;;5013477;28;20397;-85
2023/09/01 13:46:19;;;;;;;1.05;0.82;;;;;;;;;;5013321;28;20420;-85
2023/09/01 13:48:45;;;;;;;1.00;0.90;;;;;;;;;;5013614;28;20788;-85
2023/09/01 13:51:11;;;;;;;1.60;0.93;;;;;;;;;;5012898;28;20476;-85
2023/09/01 13:53:36;;;;;;;2.20;0.90;;;;;;;;;;5013075;28;20969;-85
2023/09/01 13:56:02;;;;;;;3.50;1.00;;;;;;;;;;5013310;28;20404;-85
2023/09/01 13:58:28;;;;;;;1.15;0.80;;;;;;;;;;5012749;28;20381;-85
2023/09/01 14:00:54;;;;;;;1.02;0.93;;;;;;;;;;5013129;28;20450;-85
2023/09/01 14:03:20;;;;;;;2.13;0.90;;;;;;;;;;5012944;28;20467;-85
2023/09/01 14:05:46;;;;;;;1.73;1.13;;;;;;;;;;5013079;28;20447;-85
2023/09/01 14:08:12;;;;;;;1.35;0.90;;;;;;;;;;5005592;28;20466;-85
2023/09/01 14:10:38;;;;;;;1.63;0.87;;;;;;;;;;5013675;28;20385;-86
2023/09/01 14:13:04;;;;;;;1.20;0.90;;;;;;;;;;5008363;28;20794;-85
2023/09/01 14:15:31;;;;;;;1.33;0.90;;;;;;;;;;5014670;28;20388;-86
2023/09/01 14:17:57;;;;;;;1.70;1.10;;;;;;;;;;5015554;28;20419;-85
2023/09/01 14:20:23;;;;;;;1.10;0.90;;;;;;;;;;5007095;28;20444;-85
2023/09/01 14:22:49;;;;;;;1.27;1.05;;;;;;;;;;5012959;28;20476;-85
2023/09/01 14:25:15;;;;;;;1.10;0.88;;;;;;;;;;5014618;28;20432;-85
2023/09/01 14:27:41;;;;;;;1.38;1.02;;;;;;;;;;5013295;28;20847;-85
2023/09/01 14:30:08;;;;;;;1.75;0.90;;;;;;;;;;5013516;28;20447;-86
2023/09/01 14:32:34;;;;;;;1.73;0.98;;;;;;;;;;5013432;28;20479;-85
2023/09/01 14:34:59;;;;;;;1.63;1.17;;;;;;;;;;5013118;28;20412;-85
2023/09/01 14:37:25;;;;;;;1.38;0.85;;;;;;;;;;5014305;28;20399;-85
2023/09/01 14:39:51;;;;;;;1.17;0.90;;;;;;;;;;5014330;28;20436;-85
2023/09/01 14:42:17;;;;;;;1.60;0.90;;;;;;;;;;5016707;28;20727;-85
2023/09/01 14:44:43;;;;;;;2.10;0.93;;;;;;;;;;5014577;28;20393;-85